createdAt,value
2019-06-08T00:00:06.854Z,13.59
2019-06-08T00:01:06.840Z,13.46
2019-06-08T00:02:06.836Z,13.43
2019-06-08T00:03:06.825Z,13.44
2019-06-08T00:04:06.836Z,13.47
2019-06-08T00:05:06.811Z,13.37
2019-06-08T00:06:06.792Z,13.24
2019-06-08T00:07:06.789Z,13.38
2019-06-08T00:08:06.775Z,13.44
2019-06-08T00:09:06.786Z,13.47
2019-06-08T00:10:06.757Z,13.52
2019-06-08T00:11:06.746Z,13.44
2019-06-08T00:12:06.728Z,13.46
2019-06-08T00:13:06.729Z,13.41
2019-06-08T00:14:06.732Z,13.51
2019-06-08T00:15:06.746Z,13.46
2019-06-08T00:16:06.693Z,13.37
2019-06-08T00:17:06.684Z,13.46
2019-06-08T00:18:06.708Z,13.37
2019-06-08T00:19:06.681Z,13.47
2019-06-08T00:20:06.647Z,13.52
2019-06-08T00:21:06.636Z,13.61
2019-06-08T00:22:06.631Z,13.61
2019-06-08T00:23:06.621Z,13.47
2019-06-08T00:24:06.629Z,13.51
2019-06-08T00:25:06.601Z,13.41
2019-06-08T00:26:06.587Z,13.38
2019-06-08T00:27:06.575Z,13.46
2019-06-08T00:28:06.563Z,13.47
2019-06-08T00:29:06.577Z,13.33
2019-06-08T00:30:06.559Z,13.40
2019-06-08T00:31:06.530Z,13.37
2019-06-08T00:32:06.517Z,13.44
2019-06-08T00:33:06.509Z,13.49
2019-06-08T00:34:06.603Z,13.47
2019-06-08T00:35:06.498Z,13.46
2019-06-08T00:36:06.478Z,13.43
2019-06-08T00:37:06.465Z,13.33
2019-06-08T00:38:06.464Z,13.38
2019-06-08T00:39:06.476Z,13.36
2019-06-08T00:40:06.448Z,13.47
2019-06-08T00:41:06.430Z,13.46
2019-06-08T00:42:06.413Z,13.47
2019-06-08T00:43:06.405Z,13.46
2019-06-08T00:44:06.419Z,13.49
2019-06-08T00:45:06.384Z,13.32
2019-06-08T00:46:06.375Z,13.36
2019-06-08T00:47:06.360Z,13.38
2019-06-08T00:48:06.369Z,13.33
2019-06-08T00:49:06.379Z,13.46
2019-06-08T00:50:06.332Z,13.41
2019-06-08T00:51:06.321Z,13.40
2019-06-08T00:52:06.319Z,13.30
2019-06-08T00:53:06.300Z,13.25
2019-06-08T00:54:06.344Z,13.30
2019-06-08T00:55:06.283Z,13.36
2019-06-08T00:56:06.270Z,13.36
2019-06-08T00:57:06.263Z,13.27
2019-06-08T00:58:06.255Z,13.21
2019-06-08T00:59:06.263Z,13.29
2019-06-08T01:00:10.627Z,13.22
2019-06-08T01:01:07.227Z,13.15
2019-06-08T01:02:06.210Z,13.06
2019-06-08T01:03:06.200Z,13.04
2019-06-08T01:04:06.213Z,13.09
2019-06-08T01:05:06.186Z,12.95
2019-06-08T01:06:06.170Z,12.88
2019-06-08T01:07:06.154Z,12.87
2019-06-08T01:08:06.201Z,12.87
2019-06-08T01:09:06.169Z,12.97
2019-06-08T01:10:06.132Z,12.88
2019-06-08T01:11:06.113Z,12.87
2019-06-08T01:12:06.136Z,12.75
2019-06-08T01:13:06.096Z,12.89
2019-06-08T01:14:06.085Z,12.87
2019-06-08T01:15:06.145Z,12.79
2019-06-08T01:16:06.061Z,12.75
2019-06-08T01:17:06.050Z,12.69
2019-06-08T01:18:06.042Z,12.59
2019-06-08T01:19:06.030Z,12.44
2019-06-08T01:20:06.042Z,12.41
2019-06-08T01:21:06.011Z,12.45
2019-06-08T01:22:05.998Z,12.51
2019-06-08T01:23:05.987Z,12.30
2019-06-08T01:24:05.979Z,12.29
2019-06-08T01:25:05.993Z,12.29
2019-06-08T01:26:05.959Z,12.21
2019-06-08T01:27:05.953Z,12.26
2019-06-08T01:28:05.932Z,12.16
2019-06-08T01:29:05.921Z,12.13
2019-06-08T01:30:05.937Z,12.20
2019-06-08T01:31:05.905Z,12.05
2019-06-08T01:32:05.892Z,12.05
2019-06-08T01:33:05.892Z,12.05
2019-06-08T01:34:05.870Z,12.01
2019-06-08T01:35:05.891Z,11.94
2019-06-08T01:36:05.865Z,11.94
2019-06-08T01:37:05.841Z,12.06
2019-06-08T01:38:05.832Z,12.13
2019-06-08T01:39:05.820Z,12.23
2019-06-08T01:40:05.839Z,12.21
2019-06-08T01:41:05.797Z,12.27
2019-06-08T01:42:05.790Z,12.19
2019-06-08T01:43:05.777Z,12.21
2019-06-08T01:44:05.767Z,12.20
2019-06-08T01:45:05.786Z,12.15
2019-06-08T01:46:05.742Z,12.04
2019-06-08T01:47:05.735Z,12.08
2019-06-08T01:48:19.475Z,12.02
2019-06-08T01:49:06.712Z,12.19
2019-06-08T01:50:05.734Z,12.06
2019-06-08T01:51:05.693Z,12.09
2019-06-08T01:52:05.676Z,12.04
2019-06-08T01:53:05.671Z,11.99
2019-06-08T01:54:05.663Z,11.99
2019-06-08T01:55:05.682Z,12.01
2019-06-08T01:56:05.640Z,11.99
2019-06-08T01:57:05.627Z,12.04
2019-06-08T01:58:05.614Z,11.86
2019-06-08T01:59:05.605Z,11.82
2019-06-08T02:00:29.495Z,11.77
2019-06-08T02:01:06.581Z,11.85
2019-06-08T02:02:05.580Z,11.77
2019-06-08T02:03:05.570Z,11.67
2019-06-08T02:04:05.551Z,11.70
2019-06-08T02:05:05.567Z,11.68
2019-06-08T02:06:05.531Z,11.78
2019-06-08T02:07:05.526Z,11.82
2019-06-08T02:08:05.511Z,11.86
2019-06-08T02:09:05.497Z,11.89
2019-06-08T02:10:05.514Z,11.97
2019-06-08T02:11:05.487Z,12.04
2019-06-08T02:12:05.465Z,12.04
2019-06-08T02:13:08.547Z,12.01
2019-06-08T02:14:05.441Z,12.01
2019-06-08T02:15:05.465Z,12.01
2019-06-08T02:16:05.424Z,12.08
2019-06-08T02:17:05.410Z,12.20
2019-06-08T02:18:05.398Z,12.16
2019-06-08T02:19:05.393Z,12.21
2019-06-08T02:20:05.406Z,12.27
2019-06-08T02:21:05.369Z,12.38
2019-06-08T02:22:05.380Z,12.38
2019-06-08T02:23:05.351Z,12.31
2019-06-08T02:24:05.338Z,12.31
2019-06-08T02:25:05.355Z,12.30
2019-06-08T02:26:05.319Z,12.21
2019-06-08T02:27:05.300Z,12.15
2019-06-08T02:28:05.324Z,12.21
2019-06-08T02:29:05.278Z,12.16
2019-06-08T02:30:05.304Z,12.23
2019-06-08T02:31:05.299Z,12.27
2019-06-08T02:32:05.250Z,12.21
2019-06-08T02:33:05.238Z,12.21
2019-06-08T02:34:05.226Z,12.27
2019-06-08T02:35:05.250Z,12.21
2019-06-08T02:36:05.217Z,12.20
2019-06-08T02:37:05.200Z,12.04
2019-06-08T02:38:05.187Z,12.06
2019-06-08T02:39:05.177Z,12.08
2019-06-08T02:40:05.198Z,11.97
2019-06-08T02:41:05.167Z,12.01
2019-06-08T02:42:05.142Z,11.93
2019-06-08T02:43:05.131Z,11.94
2019-06-08T02:44:05.117Z,11.94
2019-06-08T02:45:05.138Z,11.89
2019-06-08T02:46:05.098Z,11.93
2019-06-08T02:47:05.088Z,12.21
2019-06-08T02:48:05.084Z,12.13
2019-06-08T02:49:05.277Z,12.23
2019-06-08T02:50:05.086Z,12.20
2019-06-08T02:51:05.056Z,12.19
2019-06-08T02:52:05.033Z,12.21
2019-06-08T02:53:05.034Z,12.31
2019-06-08T02:54:05.014Z,12.30
2019-06-08T02:55:05.072Z,12.48
2019-06-08T02:56:05.026Z,12.49
2019-06-08T02:57:04.979Z,12.70
2019-06-08T02:58:04.966Z,12.66
2019-06-08T02:59:04.957Z,12.69
2019-06-08T03:00:04.971Z,12.75
2019-06-08T03:01:04.935Z,12.87
2019-06-08T03:02:04.938Z,12.95
2019-06-08T03:03:04.914Z,13.06
2019-06-08T03:04:04.922Z,13.07
2019-06-08T03:05:04.928Z,13.12
2019-06-08T03:06:04.882Z,13.09
2019-06-08T03:07:04.881Z,13.12
2019-06-08T03:08:04.862Z,13.12
2019-06-08T03:09:04.881Z,13.06
2019-06-08T03:10:04.865Z,12.99
2019-06-08T03:11:04.836Z,13.04
2019-06-08T03:12:04.820Z,13.06
2019-06-08T03:13:04.805Z,13.04
2019-06-08T03:14:04.801Z,13.18
2019-06-08T03:15:04.828Z,13.18
2019-06-08T03:16:04.778Z,13.17
2019-06-08T03:17:04.774Z,13.17
2019-06-08T03:18:04.758Z,13.20
2019-06-08T03:19:21.003Z,13.21
2019-06-08T03:20:05.767Z,13.25
2019-06-08T03:21:04.726Z,13.20
2019-06-08T03:22:04.717Z,13.11
2019-06-08T03:23:04.707Z,13.12
2019-06-08T03:24:04.700Z,13.24
2019-06-08T03:25:04.678Z,13.29
2019-06-08T03:26:04.697Z,13.33
2019-06-08T03:27:04.657Z,13.56
2019-06-08T03:28:04.650Z,13.54
2019-06-08T03:29:04.648Z,13.55
2019-06-08T03:30:16.141Z,13.61
2019-06-08T03:31:05.730Z,13.55
2019-06-08T03:32:04.614Z,13.55
2019-06-08T03:33:04.610Z,13.52
2019-06-08T03:34:04.591Z,13.49
2019-06-08T03:35:04.580Z,13.59
2019-06-08T03:36:04.613Z,13.55
2019-06-08T03:37:04.571Z,13.58
2019-06-08T03:38:04.549Z,13.70
2019-06-08T03:39:04.534Z,13.62
2019-06-08T03:40:04.525Z,13.69
2019-06-08T03:41:04.550Z,13.69
2019-06-08T03:42:04.505Z,13.71
2019-06-08T03:43:04.496Z,13.79
2019-06-08T03:44:04.486Z,13.76
2019-06-08T03:45:04.470Z,13.69
2019-06-08T03:46:04.493Z,13.73
2019-06-08T03:47:04.450Z,13.56
2019-06-08T03:48:04.448Z,13.61
2019-06-08T03:49:04.433Z,13.65
2019-06-08T03:50:04.435Z,13.55
2019-06-08T03:51:04.446Z,13.52
2019-06-08T03:52:04.401Z,13.58
2019-06-08T03:53:04.387Z,13.58
2019-06-08T03:54:04.383Z,13.54
2019-06-08T03:55:04.367Z,13.43
2019-06-08T03:56:04.386Z,13.33
2019-06-08T03:57:04.384Z,13.24
2019-06-08T03:58:04.356Z,13.15
2019-06-08T03:59:04.322Z,13.07
2019-06-08T04:00:13.034Z,13.03
2019-06-08T04:01:05.327Z,13.00
2019-06-08T04:02:04.298Z,13.07
2019-06-08T04:03:04.291Z,13.12
2019-06-08T04:04:04.268Z,13.21
2019-06-08T04:05:04.257Z,13.24
2019-06-08T04:06:04.272Z,13.49
2019-06-08T04:07:04.237Z,13.55
2019-06-08T04:08:04.226Z,13.52
2019-06-08T04:09:04.229Z,14.10
2019-06-08T04:10:04.204Z,14.49
2019-06-08T04:11:04.221Z,14.53
2019-06-08T04:12:04.183Z,14.35
2019-06-08T04:13:04.176Z,13.94
2019-06-08T04:14:04.155Z,13.74
2019-06-08T04:15:04.156Z,13.71
2019-06-08T04:16:04.169Z,13.61
2019-06-08T04:17:04.127Z,13.62
2019-06-08T04:18:04.114Z,13.59
2019-06-08T04:19:04.102Z,13.49
2019-06-08T04:20:10.999Z,13.47
2019-06-08T04:21:05.105Z,13.44
2019-06-08T04:22:04.072Z,13.62
2019-06-08T04:23:04.059Z,14.13
2019-06-08T04:24:04.049Z,15.01
2019-06-08T04:25:04.033Z,15.49
2019-06-08T04:26:04.050Z,14.91
2019-06-08T04:27:04.015Z,14.88
2019-06-08T04:28:04.003Z,14.54
2019-06-08T04:29:03.994Z,14.42
2019-06-08T04:30:04.003Z,14.64
2019-06-08T04:31:04.010Z,14.64
2019-06-08T04:32:03.962Z,14.52
2019-06-08T04:33:03.954Z,14.95
2019-06-08T04:34:03.940Z,15.51
2019-06-08T04:35:03.930Z,15.93
2019-06-08T04:36:03.959Z,16.34
2019-06-08T04:37:03.916Z,16.44
2019-06-08T04:38:03.910Z,16.53
2019-06-08T04:39:03.888Z,16.06
2019-06-08T04:40:03.912Z,16.00
2019-06-08T04:41:03.891Z,15.28
2019-06-08T04:42:03.857Z,15.03
2019-06-08T04:43:03.879Z,15.05
2019-06-08T04:44:03.834Z,15.79
2019-06-08T04:45:03.823Z,16.42
2019-06-08T04:46:03.842Z,16.92
2019-06-08T04:47:03.801Z,17.03
2019-06-08T04:48:03.798Z,17.22
2019-06-08T04:49:03.787Z,17.43
2019-06-08T04:50:20.993Z,17.71
2019-06-08T04:51:04.785Z,17.51
2019-06-08T04:52:03.753Z,17.44
2019-06-08T04:53:03.744Z,17.64
2019-06-08T04:54:03.727Z,17.57
2019-06-08T04:55:03.722Z,17.63
2019-06-08T04:56:03.731Z,17.85
2019-06-08T04:57:03.694Z,17.64
2019-06-08T04:58:03.693Z,17.87
2019-06-08T04:59:03.675Z,17.67
2019-06-08T05:00:11.880Z,17.87
2019-06-08T05:01:04.676Z,17.43
2019-06-08T05:02:03.645Z,16.88
2019-06-08T05:03:03.633Z,17.53
2019-06-08T05:04:03.622Z,17.55
2019-06-08T05:05:03.611Z,16.49
2019-06-08T05:06:03.626Z,15.96
2019-06-08T05:07:03.592Z,15.96
2019-06-08T05:08:03.579Z,16.07
2019-06-08T05:09:03.568Z,15.64
2019-06-08T05:10:03.562Z,15.28
2019-06-08T05:11:03.576Z,15.05
2019-06-08T05:12:03.534Z,14.93
2019-06-08T05:13:03.528Z,14.75
2019-06-08T05:14:03.514Z,14.69
2019-06-08T05:15:03.505Z,14.67
2019-06-08T05:16:03.702Z,14.65
2019-06-08T05:17:03.494Z,14.49
2019-06-08T05:18:03.501Z,14.49
2019-06-08T05:19:03.461Z,14.49
2019-06-08T05:20:03.552Z,14.39
2019-06-08T05:21:03.471Z,14.39
2019-06-08T05:22:03.430Z,14.43
2019-06-08T05:23:03.440Z,14.38
2019-06-08T05:24:03.434Z,14.42
2019-06-08T05:25:03.415Z,14.38
2019-06-08T05:26:03.588Z,14.44
2019-06-08T05:27:03.397Z,14.60
2019-06-08T05:28:03.363Z,14.56
2019-06-08T05:29:03.356Z,14.52
2019-06-08T05:30:08.295Z,14.94
2019-06-08T05:31:04.382Z,14.83
2019-06-08T05:32:03.335Z,14.83
2019-06-08T05:33:03.310Z,14.83
2019-06-08T05:34:03.298Z,14.75
2019-06-08T05:35:03.313Z,14.93
2019-06-08T05:36:03.281Z,14.84
2019-06-08T05:37:03.297Z,14.86
2019-06-08T05:38:03.259Z,14.87
2019-06-08T05:39:03.262Z,14.81
2019-06-08T05:40:03.237Z,14.87
2019-06-08T05:41:03.231Z,14.84
2019-06-08T05:42:03.241Z,14.94
2019-06-08T05:43:03.207Z,14.83
2019-06-08T05:44:03.198Z,14.62
2019-06-08T05:45:03.189Z,14.71
2019-06-08T05:46:03.173Z,14.65
2019-06-08T05:47:03.199Z,14.54
2019-06-08T05:48:03.156Z,14.56
2019-06-08T05:49:03.174Z,14.61
2019-06-08T05:50:03.130Z,14.52
2019-06-08T05:51:04.421Z,14.52
2019-06-08T05:52:03.140Z,14.53
2019-06-08T05:53:03.103Z,14.42
2019-06-08T05:54:03.254Z,14.38
2019-06-08T05:55:03.078Z,14.44
2019-06-08T05:56:03.069Z,14.42
2019-06-08T05:57:03.088Z,14.47
2019-06-08T05:58:03.047Z,14.44
2019-06-08T05:59:03.042Z,14.39
2019-06-08T06:00:08.812Z,14.43
2019-06-08T06:01:04.012Z,14.43
2019-06-08T06:02:03.037Z,14.42
2019-06-08T06:03:03.027Z,14.43
2019-06-08T06:04:02.991Z,14.43
2019-06-08T06:05:02.971Z,14.44
2019-06-08T06:06:02.975Z,14.44
2019-06-08T06:07:02.983Z,14.31
2019-06-08T06:08:03.074Z,14.29
2019-06-08T06:09:02.928Z,14.34
2019-06-08T06:10:02.919Z,14.44
2019-06-08T06:11:02.915Z,14.47
2019-06-08T06:12:02.930Z,14.54
2019-06-08T06:13:02.920Z,14.56
2019-06-08T06:14:02.882Z,14.44
2019-06-08T06:15:02.876Z,14.64
2019-06-08T06:16:02.859Z,14.60
2019-06-08T06:17:02.866Z,14.64
2019-06-08T06:18:02.831Z,14.54
2019-06-08T06:19:02.818Z,14.60
2019-06-08T06:20:02.811Z,14.72
2019-06-08T06:21:10.921Z,14.65
2019-06-08T06:22:03.817Z,14.64
2019-06-08T06:23:02.795Z,14.65
2019-06-08T06:24:02.789Z,14.56
2019-06-08T06:25:02.763Z,14.67
2019-06-08T06:26:02.760Z,14.54
2019-06-08T06:27:02.766Z,14.65
2019-06-08T06:28:06.133Z,14.61
2019-06-08T06:29:02.757Z,14.68
2019-06-08T06:30:02.783Z,14.67
2019-06-08T06:31:02.709Z,14.71
2019-06-08T06:32:02.718Z,14.74
2019-06-08T06:33:02.687Z,14.87
2019-06-08T06:34:02.708Z,14.88
2019-06-08T06:35:02.660Z,15.03
2019-06-08T06:36:02.639Z,15.09
2019-06-08T06:37:02.672Z,15.28
2019-06-08T06:38:02.618Z,15.43
2019-06-08T06:39:02.608Z,15.66
2019-06-08T06:40:02.600Z,15.59
2019-06-08T06:41:02.593Z,15.56
2019-06-08T06:42:02.599Z,15.38
2019-06-08T06:43:02.577Z,15.36
2019-06-08T06:44:02.657Z,15.33
2019-06-08T06:45:02.610Z,15.28
2019-06-08T06:46:02.534Z,15.24
2019-06-08T06:47:02.546Z,15.28
2019-06-08T06:48:02.525Z,15.20
2019-06-08T06:49:02.518Z,15.15
2019-06-08T06:50:02.492Z,15.08
2019-06-08T06:51:02.568Z,15.02
2019-06-08T06:52:02.498Z,15.15
2019-06-08T06:53:02.462Z,15.06
2019-06-08T06:54:02.458Z,15.23
2019-06-08T06:55:02.440Z,15.51
2019-06-08T06:56:02.435Z,16.03
2019-06-08T06:57:02.469Z,16.96
2019-06-08T06:58:02.417Z,16.93
2019-06-08T06:59:02.399Z,16.50
2019-06-08T07:00:02.385Z,16.50
2019-06-08T07:01:02.370Z,16.48
2019-06-08T07:02:02.390Z,16.58
2019-06-08T07:03:02.354Z,16.33
2019-06-08T07:04:02.346Z,16.25
2019-06-08T07:05:02.832Z,16.42
2019-06-08T07:06:02.325Z,16.56
2019-06-08T07:07:02.396Z,16.95
2019-06-08T07:08:02.303Z,17.13
2019-06-08T07:09:02.292Z,17.23
2019-06-08T07:10:02.281Z,17.07
2019-06-08T07:11:02.272Z,17.07
2019-06-08T07:12:02.283Z,17.18
2019-06-08T07:13:02.339Z,18.02
2019-06-08T07:14:02.241Z,17.84
2019-06-08T07:15:02.227Z,17.51
2019-06-08T07:16:17.266Z,17.30
2019-06-08T07:17:03.235Z,17.47
2019-06-08T07:18:02.203Z,17.57
2019-06-08T07:19:02.189Z,17.74
2019-06-08T07:20:02.173Z,17.33
2019-06-08T07:21:02.167Z,17.20
2019-06-08T07:22:02.176Z,17.14
2019-06-08T07:23:02.151Z,17.69
2019-06-08T07:24:02.133Z,17.43
2019-06-08T07:25:02.130Z,17.30
2019-06-08T07:26:02.118Z,17.13
2019-06-08T07:27:02.126Z,16.88
2019-06-08T07:28:02.087Z,16.71
2019-06-08T07:29:02.079Z,16.53
2019-06-08T07:30:02.122Z,16.22
2019-06-08T07:31:02.057Z,16.26
2019-06-08T07:32:02.074Z,16.26
2019-06-08T07:33:02.039Z,16.30
2019-06-08T07:34:02.040Z,16.12
2019-06-08T07:35:02.097Z,16.06
2019-06-08T07:36:02.006Z,15.94
2019-06-08T07:37:02.019Z,15.92
2019-06-08T07:38:02.096Z,16.00
2019-06-08T07:39:01.970Z,16.35
2019-06-08T07:40:01.978Z,16.40
2019-06-08T07:41:01.994Z,16.26
2019-06-08T07:42:01.969Z,16.26
2019-06-08T07:43:01.929Z,16.04
2019-06-08T07:44:01.923Z,15.99
2019-06-08T07:45:01.927Z,15.81
2019-06-08T07:46:01.899Z,15.57
2019-06-08T07:47:01.913Z,15.56
2019-06-08T07:48:01.876Z,15.39
2019-06-08T07:49:01.874Z,15.46
2019-06-08T07:50:04.669Z,15.36
2019-06-08T07:51:01.855Z,15.27
2019-06-08T07:52:09.812Z,15.30
2019-06-08T07:53:02.832Z,15.39
2019-06-08T07:54:01.816Z,15.52
2019-06-08T07:55:01.819Z,15.45
2019-06-08T07:56:01.798Z,15.45
2019-06-08T07:57:01.810Z,15.45
2019-06-08T07:58:01.769Z,15.60
2019-06-08T07:59:01.760Z,15.72
2019-06-08T08:00:08.806Z,15.89
2019-06-08T08:01:07.880Z,15.89
2019-06-08T08:02:02.772Z,16.06
2019-06-08T08:03:01.742Z,16.38
2019-06-08T08:04:01.770Z,16.88
2019-06-08T08:05:01.788Z,17.00
2019-06-08T08:06:01.704Z,17.10
2019-06-08T08:07:01.689Z,16.99
2019-06-08T08:08:01.773Z,17.04
2019-06-08T08:09:01.760Z,16.95
2019-06-08T08:10:01.638Z,16.78
2019-06-08T08:11:01.629Z,16.58
2019-06-08T08:12:01.622Z,16.62
2019-06-08T08:13:01.633Z,16.58
2019-06-08T08:14:01.598Z,16.63
2019-06-08T08:15:01.592Z,16.53
2019-06-08T08:16:01.586Z,16.35
2019-06-08T08:17:01.568Z,16.35
2019-06-08T08:18:01.582Z,16.56
2019-06-08T08:19:01.552Z,16.75
2019-06-08T08:20:01.536Z,17.03
2019-06-08T08:21:09.250Z,17.20
2019-06-08T08:22:18.530Z,17.33
2019-06-08T08:23:05.913Z,17.62
2019-06-08T08:24:01.843Z,17.66
2019-06-08T08:25:04.750Z,17.35
2019-06-08T08:26:01.949Z,17.40
2019-06-08T08:27:03.583Z,17.33
2019-06-08T08:28:01.482Z,17.40
2019-06-08T08:29:03.212Z,17.41
2019-06-08T08:30:02.118Z,17.28
2019-06-08T08:31:01.860Z,17.07
2019-06-08T08:32:02.034Z,16.92
2019-06-08T08:33:03.153Z,16.70
2019-06-08T08:34:05.596Z,16.63
2019-06-08T08:35:03.004Z,16.70
2019-06-08T08:36:01.912Z,16.55
2019-06-08T08:37:06.034Z,16.42
2019-06-08T08:38:04.535Z,16.42
2019-06-08T08:39:02.605Z,16.49
2019-06-08T08:40:01.665Z,16.49
2019-06-08T08:41:07.321Z,16.68
2019-06-08T08:42:04.996Z,16.53
2019-06-08T08:43:01.718Z,16.55
2019-06-08T08:44:04.251Z,16.63
2019-06-08T08:45:04.722Z,16.77
2019-06-08T08:46:01.993Z,16.86
2019-06-08T08:47:02.649Z,16.75
2019-06-08T08:48:21.072Z,16.53
2019-06-08T08:49:09.484Z,16.65
2019-06-08T08:50:02.304Z,16.89
2019-06-08T08:51:03.535Z,17.07
2019-06-08T08:52:01.872Z,16.90
2019-06-08T08:53:02.376Z,16.80
2019-06-08T08:54:04.770Z,16.68
2019-06-08T08:55:02.273Z,16.85
2019-06-08T08:56:02.512Z,16.78
2019-06-08T08:57:04.738Z,16.78
2019-06-08T08:58:02.188Z,16.70
2019-06-08T08:59:02.723Z,16.68
2019-06-08T09:00:04.793Z,16.74
2019-06-08T09:01:03.476Z,16.70
2019-06-08T09:02:02.555Z,16.56
2019-06-08T09:03:33.087Z,16.67
2019-06-08T09:04:04.990Z,16.93
2019-06-08T09:05:03.346Z,17.13
2019-06-08T09:06:03.708Z,17.35
2019-06-08T09:07:05.655Z,17.35
2019-06-08T09:08:03.722Z,17.32
2019-06-08T09:09:03.254Z,17.30
2019-06-08T09:10:03.478Z,17.25
2019-06-08T09:11:03.558Z,17.14
2019-06-08T09:12:04.323Z,17.04
2019-06-08T09:13:04.420Z,17.20
2019-06-08T09:14:05.167Z,17.25
2019-06-08T09:15:03.739Z,17.18
2019-06-08T09:16:03.947Z,17.23
2019-06-08T09:17:02.150Z,17.43
2019-06-08T09:18:03.621Z,17.63
2019-06-08T09:19:04.253Z,17.78
2019-06-08T09:20:03.643Z,18.28
2019-06-08T09:21:02.871Z,18.33
2019-06-08T09:22:02.783Z,18.62
2019-06-08T09:23:10.534Z,18.61
2019-06-08T09:24:03.818Z,18.68
2019-06-08T09:25:04.070Z,18.64
2019-06-08T09:26:07.679Z,18.29
2019-06-08T09:27:04.040Z,18.47
2019-06-08T09:28:04.414Z,18.29
2019-06-08T09:29:03.317Z,18.29
2019-06-08T09:30:04.412Z,18.43
2019-06-08T09:31:03.725Z,18.28
2019-06-08T09:32:03.141Z,18.39
2019-06-08T09:33:02.509Z,18.68
2019-06-08T09:34:09.353Z,19.05
2019-06-08T09:35:04.647Z,18.84
2019-06-08T09:36:02.833Z,18.90
2019-06-08T09:37:02.826Z,18.67
2019-06-08T09:38:03.093Z,18.47
2019-06-08T09:39:03.104Z,18.18
2019-06-08T09:40:02.196Z,17.88
2019-06-08T09:41:03.394Z,17.97
2019-06-08T09:42:03.032Z,17.81
2019-06-08T09:43:06.099Z,17.76
2019-06-08T09:44:05.257Z,17.78
2019-06-08T09:45:04.230Z,17.64
2019-06-08T09:46:02.977Z,17.50
2019-06-08T09:47:05.644Z,17.53
2019-06-08T09:48:05.241Z,17.57
2019-06-08T09:49:07.693Z,17.76
2019-06-08T09:50:03.797Z,17.87
2019-06-08T09:51:04.126Z,17.76
2019-06-08T09:52:02.861Z,18.12
2019-06-08T09:53:17.979Z,18.07
2019-06-08T09:54:05.692Z,18.13
2019-06-08T09:55:03.911Z,18.02
2019-06-08T09:56:05.365Z,18.65
2019-06-08T09:57:03.886Z,19.51
2019-06-08T09:58:05.013Z,20.13
2019-06-08T09:59:04.669Z,21.14
2019-06-08T10:00:08.666Z,20.49
2019-06-08T10:01:04.222Z,20.41
2019-06-08T10:02:06.455Z,20.09
2019-06-08T10:03:04.389Z,19.63
2019-06-08T10:04:02.387Z,19.54
2019-06-08T10:05:02.431Z,19.35
2019-06-08T10:06:05.318Z,18.82
2019-06-08T10:07:02.678Z,18.86
2019-06-08T10:08:02.194Z,18.72
2019-06-08T10:09:00.753Z,18.33
2019-06-08T10:10:02.655Z,18.15
2019-06-08T10:11:03.229Z,18.00
2019-06-08T10:12:03.395Z,17.95
2019-06-08T10:13:03.562Z,18.12
2019-06-08T10:14:04.744Z,18.21
2019-06-08T10:15:00.652Z,18.18
2019-06-08T10:16:03.635Z,18.28
2019-06-08T10:17:03.579Z,18.50
2019-06-08T10:18:00.993Z,18.83
2019-06-08T10:19:03.296Z,18.80
2019-06-08T10:20:02.385Z,18.64
2019-06-08T10:21:01.392Z,19.13
2019-06-08T10:22:00.876Z,19.20
2019-06-08T10:23:03.200Z,20.20
2019-06-08T10:24:02.720Z,20.21
2019-06-08T10:25:02.822Z,19.76
2019-06-08T10:26:03.001Z,19.38
2019-06-08T10:27:01.385Z,19.21
2019-06-08T10:28:06.726Z,18.76
2019-06-08T10:29:03.660Z,18.73
2019-06-08T10:30:03.185Z,18.42
2019-06-08T10:31:01.620Z,18.40
2019-06-08T10:32:01.475Z,18.46
2019-06-08T10:33:02.149Z,18.40
2019-06-08T10:34:03.199Z,18.61
2019-06-08T10:35:02.256Z,18.77
2019-06-08T10:36:02.322Z,18.64
2019-06-08T10:37:06.458Z,18.67
2019-06-08T10:38:05.079Z,18.31
2019-06-08T10:39:03.780Z,18.07
2019-06-08T10:40:03.753Z,18.13
2019-06-08T10:41:06.852Z,18.15
2019-06-08T10:42:03.221Z,18.12
2019-06-08T10:43:01.486Z,18.15
2019-06-08T10:44:01.224Z,17.84
2019-06-08T10:45:07.598Z,17.79
2019-06-08T10:46:07.741Z,17.73
2019-06-08T10:47:03.209Z,17.79
2019-06-08T10:48:01.486Z,17.64
2019-06-08T10:49:00.630Z,17.64
2019-06-08T10:50:05.470Z,17.78
2019-06-08T10:51:03.731Z,17.89
2019-06-08T10:52:03.014Z,18.00
2019-06-08T10:53:02.836Z,18.19
2019-06-08T10:54:00.029Z,18.49
2019-06-08T10:55:03.222Z,18.49
2019-06-08T10:56:01.728Z,18.68
2019-06-08T10:57:02.563Z,18.44
2019-06-08T10:58:02.283Z,18.25
2019-06-08T10:59:02.310Z,18.28
2019-06-08T11:00:01.146Z,18.04
2019-06-08T11:01:04.201Z,17.89
2019-06-08T11:02:02.726Z,17.57
2019-06-08T11:03:02.984Z,17.44
2019-06-08T11:04:01.563Z,17.41
2019-06-08T11:05:04.762Z,17.30
2019-06-08T11:06:02.598Z,17.36
2019-06-08T11:07:05.650Z,17.43
2019-06-08T11:08:02.539Z,17.36
2019-06-08T11:09:03.723Z,17.33
2019-06-08T11:10:02.002Z,17.46
2019-06-08T11:11:01.207Z,17.36
2019-06-08T11:12:01.515Z,17.55
2019-06-08T11:13:05.200Z,17.64
2019-06-08T11:14:02.541Z,17.81
2019-06-08T11:15:01.616Z,18.00
2019-06-08T11:16:00.968Z,18.09
2019-06-08T11:17:00.623Z,18.09
2019-06-08T11:18:02.253Z,18.09
2019-06-08T11:19:02.650Z,18.18
2019-06-08T11:20:02.273Z,18.62
2019-06-08T11:21:01.695Z,18.94
2019-06-08T11:22:02.869Z,19.17
2019-06-08T11:23:02.059Z,19.95
2019-06-08T11:24:10.857Z,19.87
2019-06-08T11:25:01.979Z,19.93
2019-06-08T11:26:04.609Z,20.30
2019-06-08T11:27:01.255Z,20.54
2019-06-08T11:27:59.924Z,20.77
2019-06-08T11:29:01.544Z,20.71
2019-06-08T11:29:59.644Z,20.69
2019-06-08T11:30:59.716Z,20.76
2019-06-08T11:31:59.968Z,21.56
2019-06-08T11:32:59.894Z,21.29
2019-06-08T11:34:00.324Z,20.95
2019-06-08T11:34:59.902Z,20.84
2019-06-08T11:36:02.942Z,20.56
2019-06-08T11:37:01.907Z,20.81
2019-06-08T11:38:00.214Z,21.05
2019-06-08T11:39:00.514Z,20.61
2019-06-08T11:39:59.843Z,20.56
2019-06-08T11:41:00.942Z,20.41
2019-06-08T11:42:00.287Z,20.03
2019-06-08T11:43:00.431Z,19.80
2019-06-08T11:44:00.088Z,19.80
2019-06-08T11:45:00.325Z,19.87
2019-06-08T11:46:00.533Z,19.66
2019-06-08T11:47:00.406Z,19.97
2019-06-08T11:48:00.502Z,20.06
2019-06-08T11:49:01.179Z,19.83
2019-06-08T11:50:00.525Z,19.39
2019-06-08T11:51:00.536Z,19.31
2019-06-08T11:52:00.453Z,19.08
2019-06-08T11:53:00.643Z,18.94
2019-06-08T11:54:00.638Z,19.05
2019-06-08T11:55:01.743Z,18.80
2019-06-08T11:56:01.133Z,18.94
2019-06-08T11:56:59.292Z,18.95
2019-06-08T11:57:59.251Z,19.08
2019-06-08T11:58:59.262Z,19.28
2019-06-08T11:59:59.231Z,19.36
2019-06-08T12:01:01.789Z,19.32
2019-06-08T12:01:59.235Z,19.42
2019-06-08T12:02:59.204Z,19.21
2019-06-08T12:03:59.191Z,19.24
2019-06-08T12:04:59.183Z,19.05
2019-06-08T12:05:59.178Z,19.25
2019-06-08T12:06:59.212Z,19.20
2019-06-08T12:07:59.153Z,19.28
2019-06-08T12:09:00.314Z,19.39
2019-06-08T12:09:59.132Z,19.84
2019-06-08T12:11:01.990Z,19.90
2019-06-08T12:11:59.110Z,20.83
2019-06-08T12:12:59.127Z,21.53
2019-06-08T12:13:59.091Z,21.51
2019-06-08T12:14:59.111Z,21.06
2019-06-08T12:15:59.068Z,21.45
2019-06-08T12:17:01.278Z,21.53
2019-06-08T12:17:59.072Z,21.39
2019-06-08T12:18:59.039Z,20.76
2019-06-08T12:19:59.028Z,20.50
2019-06-08T12:21:01.492Z,20.21
2019-06-08T12:21:59.014Z,19.76
2019-06-08T12:22:59.018Z,19.23
2019-06-08T12:23:58.987Z,18.87
2019-06-08T12:24:58.977Z,19.14
2019-06-08T12:25:58.963Z,19.40
2019-06-08T12:27:09.236Z,19.36
2019-06-08T12:27:59.967Z,19.29
2019-06-08T12:29:01.259Z,19.21
2019-06-08T12:29:58.924Z,19.06
2019-06-08T12:31:00.938Z,19.06
2019-06-08T12:32:00.504Z,19.11
2019-06-08T12:32:58.914Z,19.47
2019-06-08T12:33:58.897Z,19.79
2019-06-08T12:35:00.125Z,20.03
2019-06-08T12:35:58.858Z,19.86
2019-06-08T12:36:58.846Z,19.66
2019-06-08T12:37:58.867Z,19.23
2019-06-08T12:38:58.826Z,19.29
2019-06-08T12:40:01.374Z,19.46
2019-06-08T12:40:58.846Z,19.32
2019-06-08T12:41:58.799Z,19.36
2019-06-08T12:42:59.700Z,19.17
2019-06-08T12:43:58.784Z,19.39
2019-06-08T12:44:58.839Z,19.38
2019-06-08T12:45:58.758Z,19.20
2019-06-08T12:46:58.843Z,18.97
2019-06-08T12:47:58.767Z,18.73
2019-06-08T12:48:58.817Z,18.55
2019-06-08T12:49:58.720Z,18.61
2019-06-08T12:50:58.708Z,18.73
2019-06-08T12:51:58.695Z,18.87